sensor_id;sensor_type;location;lat;lon;timestamp;pressure;altitude;pressure_sealevel;temperature;humidity
75891;BME280;64571;47.512;19.054;2023-06-14T00:01:24;100170.53;;;16.43;66.14
75891;BME280;64571;47.512;19.054;2023-06-14T00:04:27;100167.19;;;16.29;66.94
75891;BME280;64571;47.512;19.054;2023-06-14T00:07:35;100158.22;;;16.15;67.40
75891;BME280;64571;47.512;19.054;2023-06-14T00:10:38;100149.34;;;16.13;67.71
75891;BME280;64571;47.512;19.054;2023-06-14T00:13:43;100174.84;;;16.20;68.13
75891;BME280;64571;47.512;19.054;2023-06-14T00:16:45;100175.72;;;16.12;68.67
75891;BME280;64571;47.512;19.054;2023-06-14T00:19:48;100164.91;;;16.02;68.80
75891;BME280;64571;47.512;19.054;2023-06-14T00:22:51;100173.84;;;16.04;69.18
75891;BME280;64571;47.512;19.054;2023-06-14T00:25:54;100159.88;;;15.95;69.33
75891;BME280;64571;47.512;19.054;2023-06-14T00:28:57;100160.19;;;15.93;68.54
75891;BME280;64571;47.512;19.054;2023-06-14T00:32:00;100179.84;;;16.14;68.10
75891;BME280;64571;47.512;19.054;2023-06-14T00:35:04;100182.34;;;16.07;67.93
75891;BME280;64571;47.512;19.054;2023-06-14T00:38:07;100190.31;;;16.05;67.87
75891;BME280;64571;47.512;19.054;2023-06-14T00:41:10;100187.03;;;16.03;67.98
75891;BME280;64571;47.512;19.054;2023-06-14T00:44:15;100180.16;;;15.92;68.59
75891;BME280;64571;47.512;19.054;2023-06-14T00:47:19;100182.03;;;15.79;69.03
75891;BME280;64571;47.512;19.054;2023-06-14T00:50:22;100190.06;;;15.89;68.65
75891;BME280;64571;47.512;19.054;2023-06-14T00:53:25;100179.44;;;15.74;69.05
75891;BME280;64571;47.512;19.054;2023-06-14T00:56:28;100173.84;;;15.74;69.03
75891;BME280;64571;47.512;19.054;2023-06-14T00:59:31;100188.91;;;15.90;68.70
75891;BME280;64571;47.512;19.054;2023-06-14T01:02:36;100185.16;;;15.86;68.96
75891;BME280;64571;47.512;19.054;2023-06-14T01:05:39;100186.31;;;15.85;69.15
75891;BME280;64571;47.512;19.054;2023-06-14T01:09:09;100184.53;;;15.81;69.43
75891;BME280;64571;47.512;19.054;2023-06-14T01:12:35;100186.41;;;15.68;71.00
75891;BME280;64571;47.512;19.054;2023-06-14T01:15:41;100180.81;;;15.68;71.01
75891;BME280;64571;47.512;19.054;2023-06-14T01:18:45;100177.66;;;15.61;71.15
75891;BME280;64571;47.512;19.054;2023-06-14T01:21:51;100184.28;;;15.65;70.87
75891;BME280;64571;47.512;19.054;2023-06-14T01:24:55;100167.03;;;15.45;71.08
75891;BME280;64571;47.512;19.054;2023-06-14T01:28:01;100177.19;;;15.59;71.10
75891;BME280;64571;47.512;19.054;2023-06-14T01:31:05;100150.59;;;15.35;71.27
75891;BME280;64571;47.512;19.054;2023-06-14T01:34:08;100164.91;;;15.42;71.50
75891;BME280;64571;47.512;19.054;2023-06-14T01:37:11;100173.81;;;15.44;71.73
75891;BME280;64571;47.512;19.054;2023-06-14T01:40:15;100177.28;;;15.41;71.87
75891;BME280;64571;47.512;19.054;2023-06-14T01:43:20;100173.50;;;15.37;72.30
75891;BME280;64571;47.512;19.054;2023-06-14T01:46:23;100180.75;;;15.38;72.42
75891;BME280;64571;47.512;19.054;2023-06-14T01:49:29;100179.91;;;15.38;72.59
75891;BME280;64571;47.512;19.054;2023-06-14T01:52:31;100161.88;;;15.18;72.81
75891;BME280;64571;47.512;19.054;2023-06-14T01:55:34;100181.28;;;15.32;72.81
75891;BME280;64571;47.512;19.054;2023-06-14T01:58:41;100171.09;;;15.18;73.06
75891;BME280;64571;47.512;19.054;2023-06-14T02:01:44;100179.16;;;15.20;73.14
75891;BME280;64571;47.512;19.054;2023-06-14T02:04:48;100184.94;;;15.15;73.13
75891;BME280;64571;47.512;19.054;2023-06-14T02:07:51;100191.19;;;15.12;73.24
75891;BME280;64571;47.512;19.054;2023-06-14T02:10:55;100204.72;;;15.10;73.04
75891;BME280;64571;47.512;19.054;2023-06-14T02:13:58;100189.94;;;15.01;73.26
75891;BME280;64571;47.512;19.054;2023-06-14T02:17:02;100180.91;;;14.86;73.40
75891;BME280;64571;47.512;19.054;2023-06-14T02:20:05;100201.78;;;14.98;73.67
75891;BME280;64571;47.512;19.054;2023-06-14T02:23:08;100184.03;;;14.85;73.58
75891;BME280;64571;47.512;19.054;2023-06-14T02:26:11;100198.34;;;14.92;73.69
75891;BME280;64571;47.512;19.054;2023-06-14T02:29:13;100204.59;;;14.89;73.91
75891;BME280;64571;47.512;19.054;2023-06-14T02:32:17;100195.38;;;14.88;73.74
75891;BME280;64571;47.512;19.054;2023-06-14T02:35:20;100193.09;;;14.82;74.01
75891;BME280;64571;47.512;19.054;2023-06-14T02:38:24;100185.69;;;14.77;74.14
75891;BME280;64571;47.512;19.054;2023-06-14T02:41:27;100189.00;;;14.62;74.79
75891;BME280;64571;47.512;19.054;2023-06-14T02:44:29;100196.22;;;14.72;74.90
75891;BME280;64571;47.512;19.054;2023-06-14T02:47:34;100184.03;;;14.67;74.75
75891;BME280;64571;47.512;19.054;2023-06-14T02:50:37;100199.81;;;14.81;75.02
75891;BME280;64571;47.512;19.054;2023-06-14T02:53:39;100197.88;;;14.73;75.07
75891;BME280;64571;47.512;19.054;2023-06-14T02:56:43;100193.25;;;14.77;74.42
75891;BME280;64571;47.512;19.054;2023-06-14T02:59:47;100178.63;;;14.62;74.69
75891;BME280;64571;47.512;19.054;2023-06-14T03:02:50;100190.63;;;14.63;75.18
75891;BME280;64571;47.512;19.054;2023-06-14T03:05:54;100184.56;;;14.61;75.24
75891;BME280;64571;47.512;19.054;2023-06-14T03:08:57;100176.81;;;14.58;75.41
75891;BME280;64571;47.512;19.054;2023-06-14T03:12:04;100185.72;;;14.68;75.43
75891;BME280;64571;47.512;19.054;2023-06-14T03:15:09;100195.09;;;14.64;75.72
75891;BME280;64571;47.512;19.054;2023-06-14T03:18:15;100193.13;;;14.64;75.78
75891;BME280;64571;47.512;19.054;2023-06-14T03:21:19;100193.44;;;14.63;75.77
75891;BME280;64571;47.512;19.054;2023-06-14T03:24:24;100177.00;;;14.53;75.89
75891;BME280;64571;47.512;19.054;2023-06-14T03:27:28;100198.22;;;14.62;75.66
75891;BME280;64571;47.512;19.054;2023-06-14T03:30:31;100196.09;;;14.68;75.10
75891;BME280;64571;47.512;19.054;2023-06-14T03:33:34;100194.75;;;14.65;75.42
75891;BME280;64571;47.512;19.054;2023-06-14T03:36:37;100183.09;;;14.55;75.51
75891;BME280;64571;47.512;19.054;2023-06-14T03:39:40;100203.31;;;14.60;75.75
75891;BME280;64571;47.512;19.054;2023-06-14T03:42:49;100205.59;;;14.67;75.73
75891;BME280;64571;47.512;19.054;2023-06-14T03:45:53;100210.37;;;14.66;75.90
75891;BME280;64571;47.512;19.054;2023-06-14T03:48:56;100210.37;;;14.75;75.75
75891;BME280;64571;47.512;19.054;2023-06-14T03:51:59;100212.69;;;14.73;75.95
75891;BME280;64571;47.512;19.054;2023-06-14T03:55:02;100189.34;;;14.60;75.81
75891;BME280;64571;47.512;19.054;2023-06-14T03:58:08;100191.97;;;14.57;76.11
75891;BME280;64571;47.512;19.054;2023-06-14T04:01:11;100205.78;;;14.71;76.18
75891;BME280;64571;47.512;19.054;2023-06-14T04:04:14;100209.19;;;14.85;75.86
75891;BME280;64571;47.512;19.054;2023-06-14T04:07:18;100212.69;;;14.90;75.66
75891;BME280;64571;47.512;19.054;2023-06-14T04:10:22;100195.06;;;14.81;75.75
75891;BME280;64571;47.512;19.054;2023-06-14T04:13:25;100210.69;;;14.91;75.81
75891;BME280;64571;47.512;19.054;2023-06-14T04:16:28;100196.19;;;14.89;75.42
75891;BME280;64571;47.512;19.054;2023-06-14T04:19:33;100218.41;;;15.03;75.25
75891;BME280;64571;47.512;19.054;2023-06-14T04:22:36;100227.44;;;15.08;75.17
75891;BME280;64571;47.512;19.054;2023-06-14T04:25:38;100224.47;;;15.13;74.78
75891;BME280;64571;47.512;19.054;2023-06-14T04:28:41;100228.91;;;15.23;74.05
75891;BME280;64571;47.512;19.054;2023-06-14T04:31:45;100226.09;;;15.23;73.90
75891;BME280;64571;47.512;19.054;2023-06-14T04:34:48;100211.59;;;15.21;74.53
75891;BME280;64571;47.512;19.054;2023-06-14T04:37:51;100226.91;;;15.32;74.01
75891;BME280;64571;47.512;19.054;2023-06-14T04:40:56;100228.53;;;15.33;73.81
75891;BME280;64571;47.512;19.054;2023-06-14T04:44:00;100216.34;;;15.29;73.35
75891;BME280;64571;47.512;19.054;2023-06-14T04:47:07;100234.94;;;15.42;73.38
75891;BME280;64571;47.512;19.054;2023-06-14T04:50:10;100238.22;;;15.44;73.26
75891;BME280;64571;47.512;19.054;2023-06-14T04:53:15;100230.47;;;15.50;73.07
75891;BME280;64571;47.512;19.054;2023-06-14T04:56:18;100231.41;;;15.63;72.50
75891;BME280;64571;47.512;19.054;2023-06-14T04:59:23;100235.22;;;15.67;72.26
75891;BME280;64571;47.512;19.054;2023-06-14T05:02:25;100239.72;;;15.80;71.81
75891;BME280;64571;47.512;19.054;2023-06-14T05:05:29;100251.06;;;15.92;71.55
75891;BME280;64571;47.512;19.054;2023-06-14T05:08:31;100248.06;;;15.98;70.89
75891;BME280;64571;47.512;19.054;2023-06-14T05:11:34;100244.03;;;16.07;70.31
75891;BME280;64571;47.512;19.054;2023-06-14T05:14:36;100220.31;;;16.05;70.02
75891;BME280;64571;47.512;19.054;2023-06-14T05:17:39;100244.37;;;16.35;69.09
75891;BME280;64571;47.512;19.054;2023-06-14T05:20:42;100246.06;;;16.69;67.52
75891;BME280;64571;47.512;19.054;2023-06-14T05:23:45;100236.97;;;17.84;63.67
75891;BME280;64571;47.512;19.054;2023-06-14T05:26:48;100227.75;;;18.48;61.58
75891;BME280;64571;47.512;19.054;2023-06-14T05:29:51;100224.75;;;19.10;59.99
75891;BME280;64571;47.512;19.054;2023-06-14T05:32:57;100224.03;;;18.85;59.81
75891;BME280;64571;47.512;19.054;2023-06-14T05:36:00;100240.91;;;18.85;60.09
75891;BME280;64571;47.512;19.054;2023-06-14T05:39:02;100238.50;;;18.59;60.65
75891;BME280;64571;47.512;19.054;2023-06-14T05:42:07;100239.88;;;18.25;61.54
75891;BME280;64571;47.512;19.054;2023-06-14T05:45:09;100246.34;;;17.76;63.30
75891;BME280;64571;47.512;19.054;2023-06-14T05:48:12;100231.69;;;18.19;61.81
75891;BME280;64571;47.512;19.054;2023-06-14T05:51:15;100234.88;;;18.58;61.26
75891;BME280;64571;47.512;19.054;2023-06-14T05:54:21;100243.75;;;18.72;60.46
75891;BME280;64571;47.512;19.054;2023-06-14T05:57:23;100229.00;;;18.63;60.23
75891;BME280;64571;47.512;19.054;2023-06-14T06:00:26;100242.91;;;19.12;59.01
75891;BME280;64571;47.512;19.054;2023-06-14T06:03:30;100246.12;;;19.86;57.64
75891;BME280;64571;47.512;19.054;2023-06-14T06:06:32;100245.34;;;20.21;55.95
75891;BME280;64571;47.512;19.054;2023-06-14T06:09:35;100242.06;;;20.19;55.86
75891;BME280;64571;47.512;19.054;2023-06-14T06:12:38;100243.94;;;19.95;56.17
75891;BME280;64571;47.512;19.054;2023-06-14T06:15:40;100248.81;;;19.98;56.30
75891;BME280;64571;47.512;19.054;2023-06-14T06:18:43;100241.25;;;20.18;55.80
75891;BME280;64571;47.512;19.054;2023-06-14T06:21:47;100246.50;;;20.36;54.87
75891;BME280;64571;47.512;19.054;2023-06-14T06:24:49;100231.44;;;20.47;54.32
75891;BME280;64571;47.512;19.054;2023-06-14T06:27:53;100248.38;;;20.83;54.09
75891;BME280;64571;47.512;19.054;2023-06-14T06:30:56;100244.50;;;20.71;53.72
75891;BME280;64571;47.512;19.054;2023-06-14T06:33:58;100251.28;;;20.86;53.54
75891;BME280;64571;47.512;19.054;2023-06-14T06:37:01;100252.34;;;20.62;54.02
75891;BME280;64571;47.512;19.054;2023-06-14T06:40:04;100242.41;;;20.33;54.67
75891;BME280;64571;47.512;19.054;2023-06-14T06:43:08;100252.28;;;20.08;55.41
75891;BME280;64571;47.512;19.054;2023-06-14T06:46:13;100252.78;;;20.29;55.15
75891;BME280;64571;47.512;19.054;2023-06-14T06:49:15;100238.97;;;20.08;55.58
75891;BME280;64571;47.512;19.054;2023-06-14T06:52:18;100246.47;;;19.69;57.36
75891;BME280;64571;47.512;19.054;2023-06-14T06:55:21;100244.06;;;19.39;57.14
75891;BME280;64571;47.512;19.054;2023-06-14T06:58:24;100254.44;;;19.51;56.77
75891;BME280;64571;47.512;19.054;2023-06-14T07:01:26;100249.94;;;19.18;57.39
75891;BME280;64571;47.512;19.054;2023-06-14T07:04:31;100236.94;;;19.14;57.49
75891;BME280;64571;47.512;19.054;2023-06-14T07:07:34;100247.03;;;19.75;56.54
75891;BME280;64571;47.512;19.054;2023-06-14T07:10:37;100224.91;;;19.61;54.83
75891;BME280;64571;47.512;19.054;2023-06-14T07:13:39;100246.31;;;19.49;56.22
75891;BME280;64571;47.512;19.054;2023-06-14T07:16:42;100259.12;;;19.75;55.51
75891;BME280;64571;47.512;19.054;2023-06-14T07:19:45;100262.66;;;20.04;54.79
75891;BME280;64571;47.512;19.054;2023-06-14T07:22:48;100264.47;;;19.80;55.44
75891;BME280;64571;47.512;19.054;2023-06-14T07:25:51;100255.03;;;20.04;55.83
75891;BME280;64571;47.512;19.054;2023-06-14T07:28:54;100242.78;;;20.16;55.05
75891;BME280;64571;47.512;19.054;2023-06-14T07:31:56;100246.38;;;20.13;54.22
75891;BME280;64571;47.512;19.054;2023-06-14T07:34:59;100250.97;;;20.21;53.95
75891;BME280;64571;47.512;19.054;2023-06-14T07:38:01;100252.47;;;19.99;54.26
75891;BME280;64571;47.512;19.054;2023-06-14T07:41:04;100261.09;;;20.06;54.05
75891;BME280;64571;47.512;19.054;2023-06-14T07:44:06;100256.94;;;19.84;54.98
75891;BME280;64571;47.512;19.054;2023-06-14T07:47:09;100261.53;;;20.24;54.20
75891;BME280;64571;47.512;19.054;2023-06-14T07:50:12;100273.53;;;20.53;53.92
75891;BME280;64571;47.512;19.054;2023-06-14T07:53:16;100266.91;;;20.29;54.56
75891;BME280;64571;47.512;19.054;2023-06-14T07:56:18;100268.81;;;20.41;54.18
75891;BME280;64571;47.512;19.054;2023-06-14T07:59:21;100273.28;;;20.26;54.51
75891;BME280;64571;47.512;19.054;2023-06-14T08:02:23;100259.16;;;20.26;54.38
75891;BME280;64571;47.512;19.054;2023-06-14T08:05:27;100277.84;;;20.66;53.66
75891;BME280;64571;47.512;19.054;2023-06-14T08:08:30;100272.91;;;20.98;53.21
75891;BME280;64571;47.512;19.054;2023-06-14T08:11:33;100267.84;;;20.88;53.04
75891;BME280;64571;47.512;19.054;2023-06-14T08:14:39;100277.44;;;20.83;53.50
75891;BME280;64571;47.512;19.054;2023-06-14T08:17:43;100269.09;;;21.48;51.43
75891;BME280;64571;47.512;19.054;2023-06-14T08:20:46;100255.75;;;22.18;49.20
75891;BME280;64571;47.512;19.054;2023-06-14T08:23:49;100270.25;;;21.67;50.12
75891;BME280;64571;47.512;19.054;2023-06-14T08:26:53;100252.00;;;21.64;50.02
75891;BME280;64571;47.512;19.054;2023-06-14T08:29:56;100253.78;;;21.11;50.68
75891;BME280;64571;47.512;19.054;2023-06-14T08:32:58;100267.31;;;21.02;50.70
75891;BME280;64571;47.512;19.054;2023-06-14T08:36:18;100259.28;;;21.23;50.29
75891;BME280;64571;47.512;19.054;2023-06-14T08:39:21;100284.28;;;21.21;50.06
75891;BME280;64571;47.512;19.054;2023-06-14T08:42:24;100283.69;;;21.12;50.97
75891;BME280;64571;47.512;19.054;2023-06-14T08:45:33;100279.88;;;21.23;51.07
75891;BME280;64571;47.512;19.054;2023-06-14T08:48:36;100291.44;;;21.34;50.33
75891;BME280;64571;47.512;19.054;2023-06-14T08:51:39;100292.62;;;21.14;49.78
75891;BME280;64571;47.512;19.054;2023-06-14T08:54:43;100299.00;;;20.91;50.58
75891;BME280;64571;47.512;19.054;2023-06-14T08:57:46;100299.31;;;21.06;50.52
75891;BME280;64571;47.512;19.054;2023-06-14T09:00:50;100306.91;;;21.21;50.38
75891;BME280;64571;47.512;19.054;2023-06-14T09:03:54;100312.91;;;21.19;51.05
75891;BME280;64571;47.512;19.054;2023-06-14T09:07:00;100291.63;;;21.06;50.26
75891;BME280;64571;47.512;19.054;2023-06-14T09:10:11;100306.53;;;21.22;51.48
75891;BME280;64571;47.512;19.054;2023-06-14T09:13:14;100306.19;;;21.43;51.39
75891;BME280;64571;47.512;19.054;2023-06-14T09:16:17;100306.56;;;21.65;50.67
75891;BME280;64571;47.512;19.054;2023-06-14T09:19:23;100313.31;;;21.18;48.52
75891;BME280;64571;47.512;19.054;2023-06-14T09:22:29;100313.53;;;21.09;48.43
75891;BME280;64571;47.512;19.054;2023-06-14T09:25:34;100317.06;;;20.87;49.74
75891;BME280;64571;47.512;19.054;2023-06-14T09:28:48;100304.66;;;20.72;50.39
75891;BME280;64571;47.512;19.054;2023-06-14T09:31:51;100322.81;;;21.29;49.58
75891;BME280;64571;47.512;19.054;2023-06-14T09:34:54;100316.72;;;21.46;49.07
75891;BME280;64571;47.512;19.054;2023-06-14T09:37:57;100301.09;;;21.53;48.28
75891;BME280;64571;47.512;19.054;2023-06-14T09:41:03;100305.97;;;21.75;47.99
75891;BME280;64571;47.512;19.054;2023-06-14T09:44:10;100301.63;;;22.27;46.75
75891;BME280;64571;47.512;19.054;2023-06-14T09:47:23;100291.75;;;22.17;47.33
75891;BME280;64571;47.512;19.054;2023-06-14T09:50:26;100284.25;;;22.29;46.36
75891;BME280;64571;47.512;19.054;2023-06-14T09:53:30;100291.94;;;23.11;44.90
75891;BME280;64571;47.512;19.054;2023-06-14T09:56:38;100266.53;;;23.22;43.36
75891;BME280;64571;47.512;19.054;2023-06-14T09:59:45;100269.81;;;23.24;42.67
75891;BME280;64571;47.512;19.054;2023-06-14T10:02:54;100282.62;;;23.48;41.29
75891;BME280;64571;47.512;19.054;2023-06-14T10:06:02;100273.56;;;23.35;41.64
75891;BME280;64571;47.512;19.054;2023-06-14T10:09:10;100275.78;;;23.53;39.13
75891;BME280;64571;47.512;19.054;2023-06-14T10:12:14;100281.56;;;23.60;38.15
75891;BME280;64571;47.512;19.054;2023-06-14T10:15:48;100258.59;;;23.75;38.68
75891;BME280;64571;47.512;19.054;2023-06-14T10:19:13;100258.84;;;23.60;39.65
75891;BME280;64571;47.512;19.054;2023-06-14T10:22:36;100269.84;;;24.06;37.46
75891;BME280;64571;47.512;19.054;2023-06-14T10:25:42;100264.28;;;24.27;37.32
75891;BME280;64571;47.512;19.054;2023-06-14T10:28:55;100260.81;;;24.48;36.12
75891;BME280;64571;47.512;19.054;2023-06-14T10:32:00;100271.34;;;23.92;36.22
75891;BME280;64571;47.512;19.054;2023-06-14T10:35:06;100254.34;;;24.47;34.67
75891;BME280;64571;47.512;19.054;2023-06-14T10:38:11;100249.91;;;24.54;34.17
75891;BME280;64571;47.512;19.054;2023-06-14T10:41:16;100258.97;;;24.18;34.17
75891;BME280;64571;47.512;19.054;2023-06-14T10:47:27;100250.91;;;24.93;34.20
75891;BME280;64571;47.512;19.054;2023-06-14T10:50:30;100258.50;;;25.62;33.10
75891;BME280;64571;47.512;19.054;2023-06-14T10:53:42;100257.13;;;25.13;32.49
75891;BME280;64571;47.512;19.054;2023-06-14T10:56:53;100238.53;;;24.50;33.74
75891;BME280;64571;47.512;19.054;2023-06-14T10:59:58;100239.50;;;24.20;33.80
75891;BME280;64571;47.512;19.054;2023-06-14T11:06:21;100246.00;;;23.69;36.29
75891;BME280;64571;47.512;19.054;2023-06-14T11:12:47;100246.00;;;23.69;36.78
75891;BME280;64571;47.512;19.054;2023-06-14T11:15:51;100237.41;;;24.10;36.17
75891;BME280;64571;47.512;19.054;2023-06-14T11:18:56;100239.19;;;24.33;35.78
75891;BME280;64571;47.512;19.054;2023-06-14T11:21:59;100241.75;;;24.48;35.79
75891;BME280;64571;47.512;19.054;2023-06-14T11:25:01;100240.47;;;24.39;35.21
75891;BME280;64571;47.512;19.054;2023-06-14T11:28:06;100225.69;;;24.15;35.27
75891;BME280;64571;47.512;19.054;2023-06-14T11:31:09;100238.06;;;24.44;35.04
75891;BME280;64571;47.512;19.054;2023-06-14T11:34:12;100230.94;;;24.75;34.34
75891;BME280;64571;47.512;19.054;2023-06-14T11:37:15;100230.00;;;24.54;34.93
75891;BME280;64571;47.512;19.054;2023-06-14T11:40:18;100245.22;;;24.86;35.38
75891;BME280;64571;47.512;19.054;2023-06-14T11:43:20;100224.59;;;24.34;38.14
75891;BME280;64571;47.512;19.054;2023-06-14T11:46:25;100239.56;;;24.28;39.15
75891;BME280;64571;47.512;19.054;2023-06-14T11:49:28;100228.75;;;23.92;39.94
75891;BME280;64571;47.512;19.054;2023-06-14T11:52:31;100236.19;;;24.70;39.07
75891;BME280;64571;47.512;19.054;2023-06-14T11:55:37;100239.09;;;24.84;38.73
75891;BME280;64571;47.512;19.054;2023-06-14T11:58:44;100231.19;;;24.45;39.44
75891;BME280;64571;47.512;19.054;2023-06-14T12:01:48;100229.75;;;24.14;40.22
75891;BME280;64571;47.512;19.054;2023-06-14T12:04:50;100238.03;;;23.89;41.42
75891;BME280;64571;47.512;19.054;2023-06-14T12:08:00;100242.34;;;23.72;42.27
75891;BME280;64571;47.512;19.054;2023-06-14T12:11:15;100233.63;;;23.55;42.33
75891;BME280;64571;47.512;19.054;2023-06-14T12:14:19;100235.22;;;23.48;42.02
75891;BME280;64571;47.512;19.054;2023-06-14T12:17:25;100248.84;;;23.69;42.03
75891;BME280;64571;47.512;19.054;2023-06-14T12:20:31;100239.72;;;23.53;42.22
75891;BME280;64571;47.512;19.054;2023-06-14T12:23:44;100238.19;;;23.63;42.04
75891;BME280;64571;47.512;19.054;2023-06-14T12:26:47;100235.00;;;23.68;41.37
75891;BME280;64571;47.512;19.054;2023-06-14T12:29:59;100233.31;;;23.60;41.25
75891;BME280;64571;47.512;19.054;2023-06-14T12:33:05;100248.03;;;23.69;40.84
75891;BME280;64571;47.512;19.054;2023-06-14T12:36:09;100247.06;;;24.54;39.01
75891;BME280;64571;47.512;19.054;2023-06-14T12:39:12;100239.97;;;24.95;37.81
75891;BME280;64571;47.512;19.054;2023-06-14T12:42:16;100237.66;;;24.42;38.39
75891;BME280;64571;47.512;19.054;2023-06-14T12:45:18;100244.91;;;24.36;38.26
75891;BME280;64571;47.512;19.054;2023-06-14T12:48:21;100222.47;;;24.93;36.89
75891;BME280;64571;47.512;19.054;2023-06-14T12:51:24;100241.56;;;24.86;36.97
75891;BME280;64571;47.512;19.054;2023-06-14T12:54:27;100243.13;;;24.76;37.19
75891;BME280;64571;47.512;19.054;2023-06-14T12:57:42;100236.69;;;24.93;36.92
75891;BME280;64571;47.512;19.054;2023-06-14T13:00:45;100226.94;;;24.87;36.69
75891;BME280;64571;47.512;19.054;2023-06-14T13:03:48;100228.47;;;24.70;37.22
75891;BME280;64571;47.512;19.054;2023-06-14T13:06:53;100213.72;;;24.43;36.99
75891;BME280;64571;47.512;19.054;2023-06-14T13:09:55;100225.84;;;24.40;37.08
75891;BME280;64571;47.512;19.054;2023-06-14T13:12:58;100224.25;;;24.39;36.73
75891;BME280;64571;47.512;19.054;2023-06-14T13:16:02;100211.03;;;24.13;37.55
75891;BME280;64571;47.512;19.054;2023-06-14T13:19:05;100211.03;;;24.13;37.33
75891;BME280;64571;47.512;19.054;2023-06-14T13:22:07;100224.94;;;24.25;37.55
75891;BME280;64571;47.512;19.054;2023-06-14T13:25:11;100224.06;;;24.14;37.22
75891;BME280;64571;47.512;19.054;2023-06-14T13:28:13;100227.50;;;23.90;37.13
75891;BME280;64571;47.512;19.054;2023-06-14T13:31:16;100220.50;;;23.77;37.50
75891;BME280;64571;47.512;19.054;2023-06-14T13:34:18;100222.56;;;23.80;37.13
75891;BME280;64571;47.512;19.054;2023-06-14T13:37:21;100215.06;;;24.05;36.99
75891;BME280;64571;47.512;19.054;2023-06-14T13:40:23;100199.66;;;24.06;36.55
75891;BME280;64571;47.512;19.054;2023-06-14T13:43:26;100220.19;;;24.37;36.24
75891;BME280;64571;47.512;19.054;2023-06-14T13:46:29;100213.78;;;24.58;36.10
75891;BME280;64571;47.512;19.054;2023-06-14T13:49:32;100215.56;;;24.87;35.62
75891;BME280;64571;47.512;19.054;2023-06-14T13:52:37;100216.37;;;24.91;35.29
75891;BME280;64571;47.512;19.054;2023-06-14T13:55:40;100211.53;;;25.02;35.14
75891;BME280;64571;47.512;19.054;2023-06-14T13:58:42;100214.06;;;25.15;35.21
75891;BME280;64571;47.512;19.054;2023-06-14T14:01:45;100205.81;;;24.92;34.88
75891;BME280;64571;47.512;19.054;2023-06-14T14:04:49;100207.81;;;24.77;34.33
75891;BME280;64571;47.512;19.054;2023-06-14T14:07:56;100217.59;;;24.94;34.63
75891;BME280;64571;47.512;19.054;2023-06-14T14:10:59;100215.12;;;24.85;34.49
75891;BME280;64571;47.512;19.054;2023-06-14T14:14:02;100213.00;;;24.61;34.92
75891;BME280;64571;47.512;19.054;2023-06-14T14:17:05;100205.63;;;24.45;34.84
75891;BME280;64571;47.512;19.054;2023-06-14T14:20:09;100184.88;;;24.38;35.31
75891;BME280;64571;47.512;19.054;2023-06-14T14:23:15;100214.00;;;24.28;34.91
75891;BME280;64571;47.512;19.054;2023-06-14T14:26:18;100208.56;;;24.05;34.98
75891;BME280;64571;47.512;19.054;2023-06-14T14:29:21;100211.91;;;24.21;34.76
75891;BME280;64571;47.512;19.054;2023-06-14T14:32:28;100194.47;;;24.19;34.08
75891;BME280;64571;47.512;19.054;2023-06-14T14:35:31;100194.13;;;24.31;33.90
75891;BME280;64571;47.512;19.054;2023-06-14T14:38:33;100208.69;;;24.26;34.58
75891;BME280;64571;47.512;19.054;2023-06-14T14:41:36;100213.75;;;24.47;33.86
75891;BME280;64571;47.512;19.054;2023-06-14T14:44:43;100205.56;;;24.38;32.57
75891;BME280;64571;47.512;19.054;2023-06-14T14:47:47;100193.28;;;24.27;32.22
75891;BME280;64571;47.512;19.054;2023-06-14T14:50:49;100213.53;;;24.88;32.84
75891;BME280;64571;47.512;19.054;2023-06-14T14:53:52;100208.62;;;24.81;32.00
75891;BME280;64571;47.512;19.054;2023-06-14T14:56:57;100214.69;;;24.76;33.22
75891;BME280;64571;47.512;19.054;2023-06-14T14:59:59;100207.66;;;24.52;33.16
75891;BME280;64571;47.512;19.054;2023-06-14T15:03:02;100207.44;;;24.20;31.82
75891;BME280;64571;47.512;19.054;2023-06-14T15:06:05;100205.03;;;24.18;32.98
75891;BME280;64571;47.512;19.054;2023-06-14T15:09:07;100192.22;;;23.91;33.52
75891;BME280;64571;47.512;19.054;2023-06-14T15:12:11;100198.75;;;23.95;33.11
75891;BME280;64571;47.512;19.054;2023-06-14T15:15:14;100202.91;;;24.08;33.41
75891;BME280;64571;47.512;19.054;2023-06-14T15:18:17;100180.19;;;24.05;32.71
75891;BME280;64571;47.512;19.054;2023-06-14T15:21:19;100182.44;;;23.85;34.00
75891;BME280;64571;47.512;19.054;2023-06-14T15:24:22;100199.87;;;23.83;35.23
75891;BME280;64571;47.512;19.054;2023-06-14T15:27:43;100185.13;;;23.67;36.17
75891;BME280;64571;47.512;19.054;2023-06-14T15:30:46;100199.06;;;23.86;36.59
75891;BME280;64571;47.512;19.054;2023-06-14T15:33:50;100180.13;;;23.53;37.56
75891;BME280;64571;47.512;19.054;2023-06-14T15:36:55;100196.94;;;23.72;37.69
75891;BME280;64571;47.512;19.054;2023-06-14T15:39:58;100194.62;;;23.44;38.24
75891;BME280;64571;47.512;19.054;2023-06-14T15:43:01;100193.50;;;23.53;38.14
75891;BME280;64571;47.512;19.054;2023-06-14T15:46:03;100186.56;;;23.94;37.63
75891;BME280;64571;47.512;19.054;2023-06-14T15:49:10;100183.47;;;24.14;37.16
75891;BME280;64571;47.512;19.054;2023-06-14T15:52:14;100179.19;;;23.83;36.87
75891;BME280;64571;47.512;19.054;2023-06-14T15:55:16;100164.41;;;23.63;36.84
75891;BME280;64571;47.512;19.054;2023-06-14T15:58:19;100192.78;;;23.63;37.36
75891;BME280;64571;47.512;19.054;2023-06-14T16:01:22;100188.25;;;23.55;37.27